x

Central Dixon Entrance Buoy (46145) Wave Buoy

12:00am - Thu 29th Jan 2015 All times are PST. -8 hours from GMT.

  • Sig Wave height 5.6ft
  • Peak Period 16s
  • Wind
    27mph, 31mph gusts
  • Sea Temp 48°f
  • Air Temp 48°f
  • Sea Pressure 1018mb
  • Central Dixon Entrance Buoy
  • Central Dixon Entrance Buoy

More Historic Weather Station data

Upgrade to MSW Pro to gain access to the past 30 days of data for over 8000 Wavebouys and Weather Stations around the globe.

Join Pro

Comparision Forecast

View Surf forecast
   
Thu 01/29 12:00am 5.5ft 16s 27 31 mph 1018mb 48f 48f
Wed 01/28 11:00pm 6ft 17s 25 31 mph 1017.7mb 47f 48f
10:00pm 5.5ft 5s 22 25 mph 1017.8mb 47f 48f
9:00pm 6ft 6s 22 27 mph 1017.6mb 47f 48f
8:00pm 6.5ft 6s 22 27 mph 1017.7mb 47f 48f
7:00pm 6ft 6s 25 31 mph 1017.6mb 47f 48f
6:00pm 6ft 6s 27 31 mph 1017.8mb 47f 48f
5:00pm 6ft 6s 22 27 mph 1018mb 47f 48f
4:00pm 6ft 6s 22 27 mph 1018.2mb 47f 48f
3:00pm 6.5ft 6s 22 27 mph 1018.5mb 47f 48f
2:00pm 6.5ft 6s 25 31 mph 1018.6mb 47f 48f
1:00pm 6.5ft 6s 25 27 mph 1018.9mb 47f 48f
12:00pm 7ft 6s 27 31 mph 1019.3mb 47f 48f
11:00am 7ft 6s 25 29 mph 1019.4mb 47f 48f
10:00am 6ft 5s 25 29 mph 1019.2mb 47f 47f
9:00am 6ft 5s 27 31 mph 1019.1mb 47f 47f
8:00am 5.5ft 6s 25 31 mph 1019.2mb 47f 47f
7:00am 5ft 5s 25 29 mph 1019.3mb 47f 47f
6:00am 4.5ft 5s 22 29 mph 1019.7mb 47f 47f
5:00am 4ft 4s 22 27 mph 1020.1mb 47f 46f
4:00am 3.5ft 4s 20 25 mph 1020.6mb 47f 46f
3:00am 3.5ft 20s 18 22 mph 1021mb 47f 45f
2:00am 3.5ft 20s 18 22 mph 1021.1mb 47f 45f
1:00am 3.5ft 8s 20 22 mph 1021mb 47f 46f
12:00am 3.5ft 8s 18 22 mph 1021mb 47f 45f
Tue 01/27 11:00pm 3.5ft 8s 18 20 mph 1020.9mb 47f 45f
10:00pm 3.5ft 8s 18 20 mph 1020.8mb 47f 45f
9:00pm 3.5ft 8s 16 20 mph 1020.4mb 47f 44f
8:00pm 3.5ft 8s 13 16 mph 1020.4mb 47f 44f
7:00pm 4.5ft 8s 9 11 mph 1019.9mb 47f 44f
6:00pm 5ft 8s 7 9 mph 1019.6mb 47f 44f
5:00pm 5ft 8s 9 16 mph 1019.2mb 47f 43f
4:00pm 5.5ft 8s 9 13 mph 1018.9mb 47f 42f
3:00pm 6ft 8s 7 11 mph 1018.6mb 47f 43f
2:00pm 6.5ft 9s 16 20 mph 1018mb 47f 43f
1:00pm 6.5ft 8s 18 22 mph 1017.1mb 48f 43f
12:00pm 6ft 9s 16 20 mph 1016.3mb 47f 43f
11:00am 6.5ft 6s 18 22 mph 1015.2mb 47f 44f
10:00am 7ft 6s 20 25 mph 1013.9mb 47f 43f
9:00am 7ft 8s 22 27 mph 1012.7mb 47f 44f
8:00am 7.5ft 9s 22 29 mph 1011.3mb 47f 44f
7:00am 7.5ft 9s 22 29 mph 1010.2mb 48f 44f
6:00am 7.5ft 10s 22 29 mph 1009.4mb 48f 43f
5:00am 8ft 8s 25 29 mph 1008.2mb 48f 43f
4:00am 8ft 9s 25 31 mph 1007.2mb 48f 43f
3:00am 7.5ft 10s 20 25 mph 1006.5mb 48f 43f
2:00am 7ft 9s 13 18 mph 1005.5mb 48f 44f
1:00am 6ft 10s 9 13 mph 1004.5mb 48f 44f
12:00am 5.5ft 11s 11 13 mph 1004.2mb 48f 44f
Mon 01/26 11:00pm 5.5ft 10s 11 16 mph 1004.1mb 48f 44f
10:00pm 5ft 11s 13 18 mph 1003.7mb 47f 44f
9:00pm 5ft 10s 16 18 mph 1003.4mb 48f 44f
8:00pm 5ft 11s 16 20 mph 1003.5mb 48f 44f
7:00pm 5.5ft 11s 16 20 mph 1003.6mb 48f 44f
6:00pm 6ft 10s 16 18 mph 1004.1mb 47f 44f
5:00pm 6ft 10s 16 18 mph 1004.5mb 48f 44f
4:00pm 6ft 11s 16 18 mph 1005mb 48f 44f
3:00pm 6ft 9s 13 16 mph 1005.6mb 47f 44f
2:00pm 6ft 9s 16 18 mph 1006.3mb 47f 44f
1:00pm 6ft 11s 18 20 mph 1007.3mb 48f 44f
12:00pm 6ft 10s 18 20 mph 1008.3mb 48f 43f
11:00am 5ft 10s 18 22 mph 1008.9mb 48f 44f
10:00am 4.5ft 12s 18 20 mph 1009.2mb 48f 44f
9:00am 4.5ft 11s 13 18 mph 1009.8mb 48f 43f
8:00am 4.5ft 13s 13 16 mph 1010.2mb 48f 43f
7:00am 4.5ft 11s 13 18 mph 1010.3mb 47f 43f
6:00am 4ft 13s 13 18 mph 1011.1mb 48f 44f
5:00am 4.5ft 13s 13
mph
1011.9mb 47f 45f
4:00am 4ft 11s 9
mph
1012.6mb 47f 46f
3:00am 4ft 10s 2 4 mph 1013.3mb 47f 46f
2:00am 4ft 11s 2 4 mph 1013.1mb 47f 46f
1:00am 4ft 11s 2 4 mph 1013.5mb 47f 46f
12:00am 4.5ft 12s  -  2 mph 1013.9mb 47f 46f
Sun 01/25 11:00pm 4.5ft 12s 2
mph
1013.6mb 47f 45f
10:00pm 4.5ft 11s 2
mph
1013.8mb 47f 46f
9:00pm 4.5ft 12s 4
mph
1013.8mb 47f 45f
8:00pm 4.5ft 14s 4 7 mph 1013.6mb 47f 45f
7:00pm 5ft 13s 4 7 mph 1013.6mb 47f 44f
6:00pm 5ft 14s 9 11 mph 1013.3mb 47f 46f
5:00pm 5.5ft 14s 7 9 mph 1013.1mb 48f 47f
4:00pm 6ft 13s 4 7 mph 1012.8mb 48f 46f
3:00pm 5.5ft 12s 2 4 mph 1013.1mb 47f 46f
2:00pm 6ft 8s 7 9 mph 1013.8mb 47f 46f
1:00pm 7ft 8s 13 16 mph 1014.1mb 47f 46f
12:00pm 7ft 9s 11 13 mph 1013.2mb 47f 47f
11:00am 8ft 10s 11 13 mph 1013.3mb 47f 47f
10:00am 8ft 10s 9 11 mph 1012.9mb 47f 46f